KLM895 EHAM-ZSPD
Flight info
| Callsign | KLM895 |
|---|---|
| Flight time | N/A |
| Altitude | 35000 |
| Route | ARNEM L620 OMELO DCT PEPIK DCT BUDOP DCT LUGEB DCT UDROS UM859 KARDE UN644 FALAZ/N0486F370 UN644 ROLIN N644 ODILI DCT BARAD M747 LUSAL N199 RASAM L88 METKA B476 TIMGA A480 OTBOR/K0885F370 N147 TRK Z621 ARBOL M610 TOMGO/K0882F390 M610 RULAD/K0882S1190 A343 POSOT B215 FKG W188 GOVSA W66 DKO W69 EGILO/K0891S1250 W69 HUR B339 SOTMU/K0885S1220 W98 ELKUR W40 DOXAB/K0887S1250 W40 YQG/K0889S1220 W142 DALIM/K0891S1250 A593 DPX A470 DALNU W166 ZJ W167 SASAN SAS81A |
| Aircraft | B772/H-SDE2E3FGHIJ5LORVWXY/LB1D1 |
Departure
| Time | 2026-05-05 10:19 |
|---|---|
| Airport | Amsterdam Airport Schiphol (EHAM) |
Arrival
| Time | N/A |
|---|---|
| Airport | Shanghai Pudong International Airport (ZSPD) |
| Time | Latitude | Longitude | Altitude | Speed | Heading |
|---|---|---|---|---|---|
| 2026-05-05 09:56 | 52.31317 | 4.76673 | 3 ft | 0 kts | 123° |
| 2026-05-05 10:06 | 52.31324 | 4.76657 | 4 ft | 3 kts | 123° |
| 2026-05-05 10:06 | 52.31335 | 4.76629 | 5 ft | 3 kts | 121° |
| 2026-05-05 10:07 | 52.31345 | 4.76601 | 6 ft | 3 kts | 114° |
| 2026-05-05 10:07 | 52.31351 | 4.76572 | 5 ft | 3 kts | 97° |
| 2026-05-05 10:07 | 52.31352 | 4.76548 | 4 ft | 3 kts | 62° |
| 2026-05-05 10:07 | 52.31348 | 4.76537 | 5 ft | 0 kts | 34° |
| 2026-05-05 10:08 | 52.31353 | 4.76543 | 3 ft | 2 kts | 34° |
| 2026-05-05 10:08 | 52.31368 | 4.76559 | 4 ft | 1 kts | 33° |
| 2026-05-05 10:08 | 52.31370 | 4.76562 | 4 ft | 0 kts | 33° |
| 2026-05-05 10:11 | 52.31386 | 4.76579 | 3 ft | 4 kts | 33° |
| 2026-05-05 10:11 | 52.31436 | 4.76632 | 3 ft | 10 kts | 34° |
| 2026-05-05 10:11 | 52.31498 | 4.76669 | 3 ft | 6 kts | 2° |
| 2026-05-05 10:11 | 52.31546 | 4.76606 | 3 ft | 13 kts | 284° |
| 2026-05-05 10:12 | 52.31545 | 4.76451 | 3 ft | 16 kts | 266° |
| 2026-05-05 10:12 | 52.31538 | 4.76230 | 3 ft | 20 kts | 266° |
| 2026-05-05 10:12 | 52.31531 | 4.76006 | 4 ft | 20 kts | 266° |
| 2026-05-05 10:12 | 52.31523 | 4.75782 | 3 ft | 20 kts | 267° |
| 2026-05-05 10:13 | 52.31515 | 4.75557 | 3 ft | 20 kts | 267° |
| 2026-05-05 10:13 | 52.31508 | 4.75332 | 3 ft | 20 kts | 266° |
| 2026-05-05 10:13 | 52.31500 | 4.75107 | 3 ft | 20 kts | 266° |
| 2026-05-05 10:13 | 52.31492 | 4.74882 | 3 ft | 20 kts | 266° |
| 2026-05-05 10:14 | 52.31484 | 4.74656 | 3 ft | 20 kts | 266° |
| 2026-05-05 10:14 | 52.31477 | 4.74431 | 3 ft | 20 kts | 267° |
| 2026-05-05 10:14 | 52.31468 | 4.74252 | 3 ft | 15 kts | 255° |
| 2026-05-05 10:14 | 52.31380 | 4.74139 | 3 ft | 19 kts | 185° |
| 2026-05-05 10:15 | 52.31249 | 4.74125 | 3 ft | 19 kts | 183° |
| 2026-05-05 10:15 | 52.31119 | 4.74113 | 3 ft | 20 kts | 183° |
| 2026-05-05 10:15 | 52.30984 | 4.74101 | 3 ft | 20 kts | 183° |
| 2026-05-05 10:15 | 52.30849 | 4.74088 | 3 ft | 20 kts | 183° |
| 2026-05-05 10:16 | 52.30713 | 4.74077 | 3 ft | 20 kts | 183° |
| 2026-05-05 10:16 | 52.30592 | 4.74066 | 3 ft | 14 kts | 183° |
| 2026-05-05 10:16 | 52.30510 | 4.74059 | 3 ft | 7 kts | 183° |
| 2026-05-05 10:16 | 52.30455 | 4.74054 | 3 ft | 9 kts | 186° |
| 2026-05-05 10:17 | 52.30408 | 4.73987 | 3 ft | 10 kts | 251° |
| 2026-05-05 10:17 | 52.30408 | 4.73879 | 2 ft | 10 kts | 272° |
| 2026-05-05 10:17 | 52.30427 | 4.73779 | 1 ft | 10 kts | 321° |
| 2026-05-05 10:17 | 52.30480 | 4.73765 | 2 ft | 3 kts | 2° |
| 2026-05-05 10:18 | 52.30481 | 4.73765 | 2 ft | 0 kts | 2° |
| 2026-05-05 10:18 | 52.30482 | 4.73765 | 2 ft | 2 kts | 2° |
| 2026-05-05 10:18 | 52.30613 | 4.73776 | 1 ft | 44 kts | 3° |
| 2026-05-05 10:18 | 52.31187 | 4.73830 | 2 ft | 119 kts | 3° |
| 2026-05-05 10:19 | 52.32227 | 4.73924 | 23 ft | 177 kts | 4° |
| 2026-05-05 10:19 | 52.33463 | 4.74032 | 885 ft | 172 kts | 7° |
| 2026-05-05 10:19 | 52.34610 | 4.74551 | 1620 ft | 176 kts | 27° |
| 2026-05-05 10:19 | 52.35780 | 4.75477 | 1963 ft | 197 kts | 27° |
| 2026-05-05 10:20 | 52.36985 | 4.76668 | 2251 ft | 211 kts | 48° |
| 2026-05-05 10:20 | 52.37525 | 4.78915 | 2567 ft | 227 kts | 89° |
| 2026-05-05 10:20 | 52.37209 | 4.81525 | 2878 ft | 245 kts | 104° |
| 2026-05-05 10:20 | 52.36725 | 4.84251 | 3391 ft | 254 kts | 102° |
| 2026-05-05 10:21 | 52.36273 | 4.87083 | 3915 ft | 261 kts | 105° |
| 2026-05-05 10:21 | 52.35683 | 4.89917 | 4577 ft | 265 kts | 108° |
| 2026-05-05 10:21 | 52.35050 | 4.92782 | 5219 ft | 270 kts | 109° |
| 2026-05-05 10:21 | 52.34410 | 4.95675 | 5880 ft | 273 kts | 109° |
| 2026-05-05 10:22 | 52.33764 | 4.98601 | 6527 ft | 275 kts | 110° |
| 2026-05-05 10:22 | 52.33111 | 5.01574 | 7131 ft | 278 kts | 110° |
| 2026-05-05 10:22 | 52.32456 | 5.04568 | 7718 ft | 281 kts | 109° |
| 2026-05-05 10:22 | 52.31797 | 5.07588 | 8301 ft | 284 kts | 109° |
| 2026-05-05 10:23 | 52.31129 | 5.10650 | 8889 ft | 287 kts | 109° |
| 2026-05-05 10:23 | 52.30463 | 5.13709 | 9446 ft | 290 kts | 109° |
| 2026-05-05 10:23 | 52.29784 | 5.16825 | 9999 ft | 292 kts | 109° |
| 2026-05-05 10:23 | 52.29091 | 5.20010 | 10287 ft | 306 kts | 109° |
| 2026-05-05 10:24 | 52.28357 | 5.23378 | 10414 ft | 324 kts | 109° |
| 2026-05-05 10:24 | 52.27578 | 5.26946 | 10564 ft | 343 kts | 109° |
| 2026-05-05 10:24 | 52.26752 | 5.30725 | 10720 ft | 363 kts | 109° |
| 2026-05-05 10:24 | 52.25886 | 5.34675 | 11093 ft | 375 kts | 109° |
| 2026-05-05 10:25 | 52.25007 | 5.38680 | 11674 ft | 383 kts | 110° |
| 2026-05-05 10:25 | 52.24100 | 5.42809 | 12380 ft | 388 kts | 110° |
| 2026-05-05 10:25 | 52.23186 | 5.46955 | 13100 ft | 391 kts | 109° |
| 2026-05-05 10:25 | 52.22265 | 5.51128 | 13787 ft | 396 kts | 109° |
| 2026-05-05 10:26 | 52.21327 | 5.55369 | 14385 ft | 400 kts | 110° |
| 2026-05-05 10:26 | 52.20378 | 5.59658 | 15014 ft | 403 kts | 110° |
| 2026-05-05 10:26 | 52.19419 | 5.63977 | 15638 ft | 406 kts | 110° |
| 2026-05-05 10:26 | 52.18450 | 5.68329 | 16254 ft | 409 kts | 110° |
| 2026-05-05 10:27 | 52.17475 | 5.72701 | 16855 ft | 412 kts | 110° |
| 2026-05-05 10:27 | 52.16490 | 5.77110 | 17427 ft | 415 kts | 111° |
| 2026-05-05 10:27 | 52.15495 | 5.81552 | 17997 ft | 419 kts | 111° |
| 2026-05-05 10:27 | 52.14493 | 5.86016 | 18510 ft | 422 kts | 111° |
| 2026-05-05 10:28 | 52.13479 | 5.90523 | 18969 ft | 425 kts | 111° |
| 2026-05-05 10:28 | 52.12457 | 5.95064 | 19400 ft | 429 kts | 111° |
| 2026-05-05 10:28 | 52.11424 | 5.99642 | 19833 ft | 433 kts | 111° |
| 2026-05-05 10:28 | 52.10393 | 6.04201 | 20261 ft | 436 kts | 111° |
| 2026-05-05 10:29 | 52.09476 | 6.08946 | 20689 ft | 440 kts | 105° |
| 2026-05-05 10:29 | 52.08881 | 6.13841 | 21097 ft | 444 kts | 100° |
| 2026-05-05 10:29 | 52.08392 | 6.18829 | 21507 ft | 447 kts | 100° |
| 2026-05-05 10:29 | 52.07905 | 6.23837 | 21913 ft | 450 kts | 100° |
| 2026-05-05 10:30 | 52.07410 | 6.28823 | 22327 ft | 454 kts | 100° |
| 2026-05-05 10:30 | 52.06895 | 6.33902 | 22736 ft | 457 kts | 101° |
| 2026-05-05 10:30 | 52.06369 | 6.39003 | 23137 ft | 460 kts | 101° |
| 2026-05-05 10:30 | 52.05830 | 6.44156 | 23506 ft | 463 kts | 101° |
| 2026-05-05 10:31 | 52.05286 | 6.49317 | 23825 ft | 466 kts | 101° |
| 2026-05-05 10:31 | 52.04734 | 6.54535 | 24179 ft | 469 kts | 101° |
| 2026-05-05 10:31 | 52.04177 | 6.59781 | 24535 ft | 472 kts | 101° |
| 2026-05-05 10:31 | 52.03618 | 6.65040 | 24872 ft | 474 kts | 101° |
| 2026-05-05 10:32 | 52.03053 | 6.70329 | 25212 ft | 477 kts | 101° |
| 2026-05-05 10:32 | 52.02476 | 6.75658 | 25534 ft | 479 kts | 102° |
| 2026-05-05 10:32 | 52.01738 | 6.80934 | 25832 ft | 481 kts | 106° |
| 2026-05-05 10:32 | 52.00882 | 6.86211 | 26130 ft | 483 kts | 107° |
| 2026-05-05 10:33 | 52.00015 | 6.91488 | 26449 ft | 486 kts | 107° |
| 2026-05-05 10:33 | 51.99151 | 6.96816 | 26756 ft | 488 kts | 107° |
| 2026-05-05 10:33 | 51.98301 | 7.02112 | 27056 ft | 490 kts | 107° |
| 2026-05-05 10:33 | 51.97443 | 7.07461 | 27351 ft | 493 kts | 107° |
| 2026-05-05 10:34 | 51.96561 | 7.12848 | 27638 ft | 495 kts | 108° |
| 2026-05-05 10:34 | 51.95604 | 7.18220 | 27925 ft | 496 kts | 109° |
| 2026-05-05 10:34 | 51.94598 | 7.23587 | 28213 ft | 498 kts | 110° |
| 2026-05-05 10:34 | 51.93572 | 7.28982 | 28495 ft | 500 kts | 110° |
| 2026-05-05 10:35 | 51.92549 | 7.34368 | 28757 ft | 502 kts | 110° |
| 2026-05-05 10:35 | 51.91525 | 7.39800 | 29018 ft | 504 kts | 110° |
| 2026-05-05 10:35 | 51.90517 | 7.45180 | 29295 ft | 506 kts | 110° |
| 2026-05-05 10:35 | 51.89495 | 7.50646 | 29532 ft | 508 kts | 110° |
| 2026-05-05 10:36 | 51.88463 | 7.56156 | 29740 ft | 510 kts | 110° |
| 2026-05-05 10:36 | 51.87431 | 7.61648 | 29997 ft | 511 kts | 110° |
| 2026-05-05 10:36 | 51.86394 | 7.67137 | 30271 ft | 510 kts | 110° |
| 2026-05-05 10:36 | 51.85399 | 7.72638 | 30552 ft | 510 kts | 108° |
| 2026-05-05 10:37 | 51.84565 | 7.78230 | 30805 ft | 510 kts | 106° |
| 2026-05-05 10:37 | 51.83776 | 7.83816 | 31044 ft | 510 kts | 106° |
| 2026-05-05 10:37 | 51.82995 | 7.89414 | 31297 ft | 510 kts | 106° |
| 2026-05-05 10:37 | 51.82208 | 7.95010 | 31552 ft | 509 kts | 106° |
| 2026-05-05 10:38 | 51.81409 | 8.00604 | 31800 ft | 509 kts | 107° |
| 2026-05-05 10:38 | 51.80623 | 8.06026 | 32059 ft | 509 kts | 107° |
| 2026-05-05 10:38 | 51.79809 | 8.11598 | 32325 ft | 508 kts | 107° |
| 2026-05-05 10:38 | 51.78993 | 8.17156 | 32577 ft | 508 kts | 107° |
| 2026-05-05 10:39 | 51.78177 | 8.22702 | 32845 ft | 508 kts | 107° |
| 2026-05-05 10:39 | 51.77358 | 8.28253 | 33100 ft | 507 kts | 107° |
| 2026-05-05 10:39 | 51.76540 | 8.33790 | 33353 ft | 507 kts | 107° |
| 2026-05-05 10:39 | 51.75749 | 8.39338 | 33590 ft | 507 kts | 106° |
| 2026-05-05 10:40 | 51.74982 | 8.44905 | 33835 ft | 508 kts | 106° |
| 2026-05-05 10:40 | 51.74227 | 8.50458 | 34021 ft | 508 kts | 106° |
| 2026-05-05 10:40 | 51.73470 | 8.56026 | 34238 ft | 508 kts | 106° |
| 2026-05-05 10:40 | 51.72705 | 8.61604 | 34443 ft | 507 kts | 106° |
| 2026-05-05 10:41 | 51.71938 | 8.67153 | 34641 ft | 507 kts | 106° |
| 2026-05-05 10:41 | 51.71173 | 8.72642 | 34793 ft | 508 kts | 106° |
| 2026-05-05 10:41 | 51.69602 | 8.83800 | 34876 ft | 512 kts | 106° |
| 2026-05-05 10:42 | 51.67226 | 9.00536 | 34867 ft | 506 kts | 106° |
| 2026-05-05 10:43 | 51.65646 | 9.11568 | 34872 ft | 504 kts | 106° |
| 2026-05-05 10:43 | 51.64057 | 9.22568 | 34880 ft | 504 kts | 107° |
| 2026-05-05 10:44 | 51.62459 | 9.33556 | 34878 ft | 504 kts | 107° |
| 2026-05-05 10:44 | 51.60857 | 9.44494 | 34882 ft | 505 kts | 107° |
| 2026-05-05 10:45 | 51.59233 | 9.55511 | 34871 ft | 506 kts | 107° |
| 2026-05-05 10:45 | 51.57598 | 9.66522 | 34875 ft | 507 kts | 107° |
| 2026-05-05 10:46 | 51.55948 | 9.77554 | 34870 ft | 508 kts | 107° |
| 2026-05-05 10:46 | 51.54295 | 9.88535 | 34874 ft | 508 kts | 107° |
| 2026-05-05 10:47 | 51.52618 | 9.99595 | 34875 ft | 509 kts | 107° |
| 2026-05-05 10:47 | 51.51219 | 10.08768 | 34873 ft | 510 kts | 108° |
| 2026-05-05 10:48 | 51.49520 | 10.19834 | 34872 ft | 510 kts | 108° |
| 2026-05-05 10:48 | 51.47810 | 10.30893 | 34880 ft | 510 kts | 108° |
| 2026-05-05 10:49 | 51.46094 | 10.41937 | 34882 ft | 510 kts | 108° |
| 2026-05-05 10:49 | 51.44367 | 10.52954 | 34883 ft | 509 kts | 108° |
| 2026-05-05 10:50 | 51.42610 | 10.63971 | 34888 ft | 509 kts | 108° |
| 2026-05-05 10:50 | 51.40859 | 10.74880 | 34884 ft | 509 kts | 108° |
| 2026-05-05 10:51 | 51.39091 | 10.85853 | 34886 ft | 509 kts | 108° |
| 2026-05-05 10:51 | 51.37311 | 10.96838 | 34879 ft | 509 kts | 108° |
| 2026-05-05 10:52 | 51.35546 | 11.07798 | 34882 ft | 508 kts | 108° |
| 2026-05-05 10:52 | 51.33789 | 11.18674 | 34887 ft | 507 kts | 108° |
| 2026-05-05 10:53 | 51.32011 | 11.29584 | 34886 ft | 506 kts | 108° |
| 2026-05-05 10:53 | 51.30224 | 11.40488 | 34888 ft | 506 kts | 108° |
| 2026-05-05 10:54 | 51.28408 | 11.51348 | 34892 ft | 505 kts | 109° |
| 2026-05-05 10:54 | 51.26533 | 11.62152 | 34883 ft | 505 kts | 109° |
| 2026-05-05 10:55 | 51.24746 | 11.72947 | 34888 ft | 505 kts | 108° |
| 2026-05-05 10:55 | 51.22941 | 11.83797 | 34884 ft | 505 kts | 109° |
| 2026-05-05 10:56 | 51.21113 | 11.94628 | 34886 ft | 505 kts | 109° |
| 2026-05-05 10:56 | 51.19258 | 12.05411 | 34882 ft | 505 kts | 109° |
| 2026-05-05 10:57 | 51.17385 | 12.16194 | 34879 ft | 504 kts | 109° |
| 2026-05-05 10:57 | 51.15509 | 12.26951 | 34882 ft | 504 kts | 109° |
| 2026-05-05 10:58 | 51.13621 | 12.37668 | 34885 ft | 504 kts | 109° |
| 2026-05-05 10:58 | 51.11719 | 12.48408 | 34883 ft | 504 kts | 109° |
| 2026-05-05 10:59 | 51.09808 | 12.59155 | 34884 ft | 504 kts | 109° |
| 2026-05-05 10:59 | 51.07876 | 12.69898 | 34882 ft | 505 kts | 109° |
| 2026-05-05 11:00 | 51.05917 | 12.80636 | 34876 ft | 505 kts | 109° |
| 2026-05-05 11:00 | 51.03955 | 12.91348 | 34872 ft | 505 kts | 109° |
| 2026-05-05 11:01 | 51.01984 | 13.02062 | 34862 ft | 505 kts | 109° |
| 2026-05-05 11:01 | 51.00020 | 13.12679 | 34860 ft | 504 kts | 110° |
| 2026-05-05 11:02 | 50.98033 | 13.23366 | 34859 ft | 504 kts | 110° |
| 2026-05-05 11:02 | 50.96044 | 13.34029 | 34850 ft | 504 kts | 109° |
| 2026-05-05 11:03 | 50.94155 | 13.44760 | 34869 ft | 504 kts | 109° |
| 2026-05-05 11:03 | 50.92230 | 13.55436 | 34865 ft | 503 kts | 110° |
| 2026-05-05 11:04 | 50.90226 | 13.65985 | 34861 ft | 503 kts | 110° |
| 2026-05-05 11:04 | 50.88224 | 13.76613 | 34853 ft | 503 kts | 110° |
| 2026-05-05 11:05 | 50.86238 | 13.87213 | 34850 ft | 502 kts | 110° |
| 2026-05-05 11:05 | 50.83880 | 13.97484 | 34839 ft | 496 kts | 122° |
| 2026-05-05 11:06 | 50.80008 | 14.06364 | 34850 ft | 486 kts | 137° |
| 2026-05-05 11:06 | 50.75231 | 14.13911 | 34844 ft | 484 kts | 140° |
| 2026-05-05 11:07 | 50.70416 | 14.21375 | 34839 ft | 485 kts | 140° |
| 2026-05-05 11:07 | 50.65645 | 14.28840 | 34839 ft | 486 kts | 139° |
| 2026-05-05 11:08 | 50.60852 | 14.36375 | 34837 ft | 487 kts | 139° |
| 2026-05-05 11:08 | 50.56053 | 14.43916 | 34830 ft | 487 kts | 139° |
| 2026-05-05 11:09 | 50.51251 | 14.51436 | 34833 ft | 487 kts | 139° |
| 2026-05-05 11:09 | 50.46441 | 14.58942 | 34833 ft | 488 kts | 139° |
| 2026-05-05 11:10 | 50.41616 | 14.66447 | 34828 ft | 488 kts | 139° |
| 2026-05-05 11:10 | 50.36794 | 14.73925 | 34816 ft | 487 kts | 139° |
| 2026-05-05 11:11 | 50.31969 | 14.81385 | 34832 ft | 487 kts | 139° |
| 2026-05-05 11:11 | 50.27137 | 14.88830 | 34830 ft | 487 kts | 139° |
| 2026-05-05 11:12 | 50.22314 | 14.96243 | 34829 ft | 487 kts | 139° |
| 2026-05-05 11:12 | 50.17514 | 15.03596 | 34828 ft | 486 kts | 139° |
| 2026-05-05 11:13 | 50.12675 | 15.10989 | 34829 ft | 486 kts | 139° |
| 2026-05-05 11:13 | 50.07829 | 15.18370 | 34827 ft | 486 kts | 139° |
| 2026-05-05 11:14 | 50.02984 | 15.25727 | 34822 ft | 486 kts | 139° |
| 2026-05-05 11:14 | 49.98163 | 15.33025 | 34825 ft | 486 kts | 139° |
| 2026-05-05 11:15 | 49.93301 | 15.40364 | 34825 ft | 486 kts | 139° |
| 2026-05-05 11:15 | 49.88446 | 15.47671 | 34829 ft | 486 kts | 139° |
| 2026-05-05 11:16 | 49.83588 | 15.54961 | 34829 ft | 486 kts | 139° |
| 2026-05-05 11:16 | 49.78714 | 15.62252 | 34819 ft | 486 kts | 139° |
| 2026-05-05 11:17 | 49.73867 | 15.69483 | 34826 ft | 486 kts | 139° |
| 2026-05-05 11:17 | 49.68990 | 15.76737 | 34821 ft | 486 kts | 139° |
| 2026-05-05 11:18 | 49.64123 | 15.83955 | 34842 ft | 485 kts | 139° |
| 2026-05-05 11:18 | 49.59249 | 15.91163 | 34838 ft | 485 kts | 139° |
| 2026-05-05 11:19 | 49.54374 | 15.98352 | 34845 ft | 485 kts | 139° |
| 2026-05-05 11:19 | 49.49488 | 16.05533 | 34839 ft | 485 kts | 139° |
| 2026-05-05 11:20 | 49.44633 | 16.12650 | 34851 ft | 485 kts | 139° |
| 2026-05-05 11:20 | 49.39755 | 16.19780 | 34856 ft | 485 kts | 139° |
| 2026-05-05 11:21 | 49.34851 | 16.26928 | 34853 ft | 485 kts | 139° |
| 2026-05-05 11:21 | 49.29955 | 16.34043 | 34849 ft | 484 kts | 139° |
| 2026-05-05 11:22 | 49.25067 | 16.41124 | 34854 ft | 484 kts | 139° |
| 2026-05-05 11:22 | 49.20166 | 16.48207 | 34854 ft | 484 kts | 139° |
| 2026-05-05 11:23 | 49.15294 | 16.55229 | 34857 ft | 484 kts | 139° |
| 2026-05-05 11:23 | 49.10375 | 16.62297 | 34854 ft | 483 kts | 139° |
| 2026-05-05 11:24 | 49.05470 | 16.69322 | 34854 ft | 483 kts | 139° |
| 2026-05-05 11:24 | 49.00592 | 16.76292 | 34854 ft | 484 kts | 139° |
| 2026-05-05 11:25 | 48.95638 | 16.83351 | 34854 ft | 484 kts | 139° |
| 2026-05-05 11:25 | 48.90750 | 16.90295 | 34850 ft | 484 kts | 139° |
| 2026-05-05 11:26 | 48.85819 | 16.97283 | 34844 ft | 484 kts | 139° |
| 2026-05-05 11:26 | 48.80886 | 17.04257 | 34850 ft | 484 kts | 139° |
| 2026-05-05 11:27 | 48.76433 | 17.11917 | 34851 ft | 488 kts | 127° |
| 2026-05-05 11:27 | 48.72690 | 17.20493 | 34858 ft | 489 kts | 125° |
| 2026-05-05 11:28 | 48.68962 | 17.29111 | 34858 ft | 489 kts | 126° |
| 2026-05-05 11:28 | 48.65196 | 17.37714 | 34870 ft | 490 kts | 126° |
| 2026-05-05 11:29 | 48.61412 | 17.46278 | 34881 ft | 490 kts | 126° |
| 2026-05-05 11:29 | 48.57608 | 17.54843 | 34877 ft | 490 kts | 126° |
| 2026-05-05 11:30 | 48.53801 | 17.63393 | 34887 ft | 490 kts | 126° |
| 2026-05-05 11:30 | 48.50006 | 17.71883 | 34882 ft | 490 kts | 126° |
| 2026-05-05 11:31 | 48.46191 | 17.80401 | 34887 ft | 490 kts | 126° |
| 2026-05-05 11:31 | 48.42372 | 17.88906 | 34889 ft | 489 kts | 126° |
| 2026-05-05 11:32 | 48.38559 | 17.97371 | 34898 ft | 489 kts | 127° |
| 2026-05-05 11:32 | 48.34732 | 18.05829 | 34900 ft | 488 kts | 127° |
| 2026-05-05 11:33 | 48.30903 | 18.14271 | 34914 ft | 488 kts | 127° |
| 2026-05-05 11:33 | 48.27716 | 18.21277 | 34911 ft | 488 kts | 127° |
| 2026-05-05 11:34 | 48.23262 | 18.31049 | 34918 ft | 487 kts | 127° |
| 2026-05-05 11:34 | 48.20068 | 18.38028 | 34927 ft | 487 kts | 127° |
| 2026-05-05 11:35 | 48.16225 | 18.46396 | 34925 ft | 488 kts | 127° |
| 2026-05-05 11:35 | 48.12369 | 18.54771 | 34930 ft | 488 kts | 127° |
| 2026-05-05 11:36 | 48.08514 | 18.63117 | 34932 ft | 488 kts | 127° |
| 2026-05-05 11:36 | 48.04645 | 18.71470 | 34937 ft | 488 kts | 127° |
| 2026-05-05 11:37 | 48.00774 | 18.79797 | 34941 ft | 488 kts | 127° |
| 2026-05-05 11:37 | 47.96893 | 18.88130 | 34953 ft | 489 kts | 127° |
| 2026-05-05 11:38 | 47.93002 | 18.96456 | 34949 ft | 489 kts | 127° |
| 2026-05-05 11:38 | 47.89106 | 19.04761 | 34957 ft | 489 kts | 127° |
| 2026-05-05 11:39 | 47.85210 | 19.13046 | 34968 ft | 489 kts | 127° |
| 2026-05-05 11:39 | 47.81298 | 19.21334 | 34955 ft | 489 kts | 127° |
| 2026-05-05 11:40 | 47.77382 | 19.29608 | 34968 ft | 489 kts | 127° |
| 2026-05-05 11:40 | 47.73456 | 19.37884 | 34958 ft | 490 kts | 127° |
| 2026-05-05 11:41 | 47.69527 | 19.46138 | 34973 ft | 490 kts | 127° |
| 2026-05-05 11:41 | 47.65583 | 19.54398 | 34970 ft | 490 kts | 127° |
| 2026-05-05 11:42 | 47.61640 | 19.62630 | 34972 ft | 489 kts | 127° |
| 2026-05-05 11:42 | 47.57690 | 19.70850 | 34978 ft | 489 kts | 127° |
| 2026-05-05 11:43 | 47.53756 | 19.79014 | 34978 ft | 490 kts | 127° |
| 2026-05-05 11:43 | 47.49803 | 19.87195 | 34974 ft | 490 kts | 127° |
| 2026-05-05 11:44 | 47.45828 | 19.95398 | 34978 ft | 490 kts | 127° |
| 2026-05-05 11:44 | 47.41844 | 20.03592 | 34979 ft | 490 kts | 127° |
| 2026-05-05 11:45 | 47.37856 | 20.11770 | 34984 ft | 490 kts | 127° |
| 2026-05-05 11:45 | 47.33860 | 20.19942 | 34987 ft | 491 kts | 127° |
| 2026-05-05 11:46 | 47.29853 | 20.28112 | 34990 ft | 491 kts | 127° |
| 2026-05-05 11:46 | 47.25868 | 20.36212 | 34990 ft | 491 kts | 127° |
| 2026-05-05 11:47 | 47.21841 | 20.44373 | 34992 ft | 491 kts | 127° |
| 2026-05-05 11:47 | 47.17846 | 20.52447 | 34992 ft | 491 kts | 127° |
| 2026-05-05 11:48 | 47.11806 | 20.64607 | 34987 ft | 491 kts | 127° |
| 2026-05-05 11:48 | 47.07766 | 20.72712 | 34990 ft | 491 kts | 127° |
| 2026-05-05 11:49 | 47.03724 | 20.80797 | 34988 ft | 492 kts | 127° |
| 2026-05-05 11:49 | 46.99673 | 20.88876 | 34994 ft | 492 kts | 127° |
| 2026-05-05 11:50 | 46.95615 | 20.96946 | 34999 ft | 492 kts | 127° |
| 2026-05-05 11:50 | 46.91572 | 21.04964 | 35001 ft | 492 kts | 127° |
| 2026-05-05 11:51 | 46.87495 | 21.13024 | 34996 ft | 492 kts | 127° |
| 2026-05-05 11:51 | 46.83408 | 21.21082 | 35000 ft | 492 kts | 127° |
| 2026-05-05 11:52 | 46.79321 | 21.29116 | 34998 ft | 493 kts | 127° |
| 2026-05-05 11:52 | 46.75226 | 21.37146 | 35001 ft | 493 kts | 126° |
| 2026-05-05 11:53 | 46.71163 | 21.45090 | 35000 ft | 493 kts | 126° |
| 2026-05-05 11:53 | 46.67330 | 21.53358 | 34997 ft | 492 kts | 118° |
| 2026-05-05 11:54 | 46.64098 | 21.62137 | 35005 ft | 491 kts | 117° |
| 2026-05-05 11:54 | 46.60881 | 21.70914 | 35014 ft | 491 kts | 117° |
| 2026-05-05 11:55 | 46.57636 | 21.79650 | 35012 ft | 491 kts | 117° |
| 2026-05-05 11:55 | 46.54368 | 21.88369 | 35014 ft | 491 kts | 117° |
| 2026-05-05 11:56 | 46.51105 | 21.97029 | 35020 ft | 492 kts | 117° |
| 2026-05-05 11:56 | 46.47819 | 22.05729 | 35020 ft | 492 kts | 117° |
| 2026-05-05 11:57 | 46.44520 | 22.14434 | 35020 ft | 492 kts | 117° |
| 2026-05-05 11:57 | 46.41212 | 22.23140 | 35027 ft | 493 kts | 117° |
| 2026-05-05 11:58 | 46.37901 | 22.31826 | 35027 ft | 493 kts | 117° |
| 2026-05-05 11:58 | 46.34579 | 22.40511 | 35031 ft | 493 kts | 117° |
| 2026-05-05 11:59 | 46.31244 | 22.49204 | 35037 ft | 493 kts | 117° |
| 2026-05-05 11:59 | 46.27915 | 22.57851 | 35036 ft | 493 kts | 117° |
| 2026-05-05 12:00 | 46.24594 | 22.66453 | 35037 ft | 493 kts | 117° |
| 2026-05-05 12:00 | 46.21247 | 22.75094 | 35039 ft | 492 kts | 117° |
| 2026-05-05 12:01 | 46.17899 | 22.83709 | 35033 ft | 492 kts | 117° |
| 2026-05-05 12:01 | 46.14545 | 22.92314 | 35039 ft | 491 kts | 117° |
| 2026-05-05 12:02 | 46.11189 | 23.00895 | 35042 ft | 491 kts | 117° |
| 2026-05-05 12:02 | 46.07827 | 23.09465 | 35045 ft | 491 kts | 117° |
| 2026-05-05 12:03 | 46.04460 | 23.18024 | 35038 ft | 491 kts | 118° |
| 2026-05-05 12:03 | 46.01108 | 23.26516 | 35034 ft | 491 kts | 118° |
| 2026-05-05 12:04 | 45.97735 | 23.35037 | 35039 ft | 490 kts | 118° |
| 2026-05-05 12:04 | 45.94346 | 23.43568 | 35043 ft | 490 kts | 118° |
| 2026-05-05 12:05 | 45.90963 | 23.52061 | 35044 ft | 490 kts | 118° |
| 2026-05-05 12:05 | 45.87572 | 23.60545 | 35047 ft | 490 kts | 118° |
| 2026-05-05 12:06 | 45.84192 | 23.68979 | 35041 ft | 490 kts | 118° |
| 2026-05-05 12:06 | 45.80784 | 23.77454 | 35033 ft | 491 kts | 118° |
| 2026-05-05 12:07 | 45.77369 | 23.85924 | 35028 ft | 491 kts | 118° |
| 2026-05-05 12:07 | 45.73943 | 23.94393 | 35029 ft | 491 kts | 118° |
| 2026-05-05 12:08 | 45.70508 | 24.02856 | 35023 ft | 491 kts | 118° |
| 2026-05-05 12:08 | 45.67097 | 24.11240 | 35022 ft | 491 kts | 118° |
| 2026-05-05 12:09 | 45.63654 | 24.19671 | 35028 ft | 491 kts | 118° |
| 2026-05-05 12:09 | 45.60210 | 24.28083 | 35032 ft | 490 kts | 118° |
| 2026-05-05 12:10 | 45.56760 | 24.36484 | 35031 ft | 490 kts | 118° |
| 2026-05-05 12:10 | 45.53303 | 24.44875 | 35046 ft | 490 kts | 118° |
| 2026-05-05 12:11 | 45.49836 | 24.53266 | 35037 ft | 491 kts | 118° |
| 2026-05-05 12:11 | 45.46389 | 24.61585 | 35047 ft | 491 kts | 118° |
| 2026-05-05 12:12 | 45.42908 | 24.69956 | 35037 ft | 491 kts | 118° |
| 2026-05-05 12:12 | 45.39426 | 24.78311 | 35041 ft | 490 kts | 118° |
| 2026-05-05 12:13 | 45.35944 | 24.86641 | 35047 ft | 491 kts | 118° |
| 2026-05-05 12:13 | 45.32440 | 24.94992 | 35045 ft | 491 kts | 118° |
| 2026-05-05 12:14 | 45.28928 | 25.03342 | 35044 ft | 492 kts | 118° |
| 2026-05-05 12:14 | 45.25411 | 25.11678 | 35037 ft | 492 kts | 118° |
| 2026-05-05 12:15 | 45.21885 | 25.20011 | 35042 ft | 492 kts | 118° |
| 2026-05-05 12:15 | 45.18376 | 25.28281 | 35037 ft | 493 kts | 118° |
| 2026-05-05 12:16 | 45.14834 | 25.36602 | 35036 ft | 492 kts | 118° |
| 2026-05-05 12:16 | 45.11289 | 25.44906 | 35044 ft | 492 kts | 119° |
| 2026-05-05 12:17 | 45.07744 | 25.53184 | 35020 ft | 491 kts | 119° |
| 2026-05-05 12:17 | 45.04219 | 25.61394 | 35046 ft | 491 kts | 119° |
| 2026-05-05 12:18 | 45.00666 | 25.69646 | 35043 ft | 491 kts | 119° |
| 2026-05-05 12:18 | 44.97112 | 25.77875 | 35024 ft | 491 kts | 119° |
| 2026-05-05 12:19 | 44.93552 | 25.86093 | 35032 ft | 490 kts | 119° |
| 2026-05-05 12:19 | 44.89985 | 25.94304 | 35034 ft | 490 kts | 119° |
| 2026-05-05 12:20 | 44.87021 | 26.01108 | 35031 ft | 490 kts | 119° |
| 2026-05-05 12:20 | 44.83444 | 26.09300 | 35032 ft | 490 kts | 119° |
| 2026-05-05 12:21 | 44.79280 | 26.18805 | 35030 ft | 490 kts | 119° |
| 2026-05-05 12:21 | 44.76275 | 26.25646 | 35028 ft | 490 kts | 119° |
| 2026-05-05 12:22 | 44.72688 | 26.33789 | 35028 ft | 490 kts | 119° |
| 2026-05-05 12:22 | 44.69115 | 26.41877 | 35030 ft | 489 kts | 119° |
| 2026-05-05 12:23 | 44.65516 | 26.50001 | 35032 ft | 489 kts | 120° |
| 2026-05-05 12:23 | 44.61917 | 26.58104 | 35029 ft | 489 kts | 120° |
| 2026-05-05 12:24 | 44.58314 | 26.66191 | 35032 ft | 488 kts | 120° |
| 2026-05-05 12:24 | 44.54708 | 26.74261 | 35036 ft | 488 kts | 120° |
| 2026-05-05 12:25 | 44.51099 | 26.82316 | 35035 ft | 488 kts | 120° |
| 2026-05-05 12:25 | 44.47511 | 26.90304 | 35036 ft | 487 kts | 120° |
| 2026-05-05 12:26 | 44.43892 | 26.98335 | 35035 ft | 487 kts | 120° |
| 2026-05-05 12:26 | 44.40279 | 27.06333 | 35038 ft | 486 kts | 121° |
| 2026-05-05 12:27 | 44.36657 | 27.14328 | 35039 ft | 486 kts | 121° |
| 2026-05-05 12:27 | 44.33037 | 27.22297 | 35041 ft | 485 kts | 121° |
| 2026-05-05 12:28 | 44.29419 | 27.30239 | 35042 ft | 484 kts | 121° |
| 2026-05-05 12:28 | 44.25815 | 27.38128 | 35039 ft | 484 kts | 121° |
| 2026-05-05 12:29 | 44.22195 | 27.46030 | 35042 ft | 483 kts | 121° |
| 2026-05-05 12:29 | 44.18570 | 27.53924 | 35040 ft | 482 kts | 121° |
| 2026-05-05 12:30 | 44.14944 | 27.61795 | 35040 ft | 482 kts | 121° |
| 2026-05-05 12:30 | 44.11334 | 27.69613 | 35043 ft | 482 kts | 122° |
| 2026-05-05 12:31 | 44.07702 | 27.77457 | 35042 ft | 482 kts | 122° |
| 2026-05-05 12:31 | 44.04064 | 27.85291 | 35045 ft | 482 kts | 122° |
| 2026-05-05 12:32 | 44.00425 | 27.93107 | 35049 ft | 481 kts | 122° |
| 2026-05-05 12:32 | 43.96779 | 28.00917 | 35048 ft | 482 kts | 122° |
| 2026-05-05 12:33 | 43.93152 | 28.08669 | 35056 ft | 482 kts | 122° |
| 2026-05-05 12:33 | 43.89491 | 28.16469 | 35055 ft | 481 kts | 122° |
| 2026-05-05 12:34 | 43.85834 | 28.24240 | 35062 ft | 481 kts | 122° |
| 2026-05-05 12:34 | 43.82173 | 28.32001 | 35066 ft | 482 kts | 122° |
| 2026-05-05 12:35 | 43.78520 | 28.39725 | 35070 ft | 482 kts | 122° |
| 2026-05-05 12:35 | 43.74848 | 28.47471 | 35072 ft | 482 kts | 122° |
| 2026-05-05 12:36 | 43.71192 | 28.55246 | 35078 ft | 481 kts | 121° |
| 2026-05-05 12:36 | 43.67596 | 28.63073 | 35075 ft | 481 kts | 121° |
| 2026-05-05 12:37 | 43.64005 | 28.70893 | 35079 ft | 481 kts | 121° |
| 2026-05-05 12:37 | 43.60425 | 28.78641 | 35082 ft | 481 kts | 121° |
| 2026-05-05 12:38 | 43.56803 | 28.86444 | 35083 ft | 481 kts | 121° |
| 2026-05-05 12:38 | 43.53210 | 28.94162 | 35084 ft | 481 kts | 121° |
| 2026-05-05 12:39 | 43.49583 | 29.01932 | 35090 ft | 481 kts | 121° |
| 2026-05-05 12:39 | 43.45959 | 29.09676 | 35086 ft | 481 kts | 121° |
| 2026-05-05 12:40 | 43.42326 | 29.17420 | 35074 ft | 481 kts | 121° |
| 2026-05-05 12:40 | 43.38689 | 29.25150 | 35072 ft | 481 kts | 121° |
| 2026-05-05 12:41 | 43.35046 | 29.32874 | 35069 ft | 482 kts | 121° |
| 2026-05-05 12:41 | 43.31416 | 29.40550 | 35088 ft | 482 kts | 121° |
| 2026-05-05 12:42 | 43.27754 | 29.48274 | 35076 ft | 482 kts | 121° |
| 2026-05-05 12:42 | 43.24083 | 29.55996 | 35075 ft | 482 kts | 121° |
| 2026-05-05 12:43 | 43.20413 | 29.63697 | 35073 ft | 483 kts | 121° |
| 2026-05-05 12:43 | 43.16731 | 29.71400 | 35072 ft | 483 kts | 121° |
| 2026-05-05 12:44 | 43.13060 | 29.79063 | 35069 ft | 483 kts | 121° |
| 2026-05-05 12:44 | 43.09365 | 29.86756 | 35069 ft | 484 kts | 121° |
| 2026-05-05 12:45 | 43.05666 | 29.94436 | 35069 ft | 484 kts | 121° |
| 2026-05-05 12:45 | 43.01943 | 30.02147 | 35065 ft | 485 kts | 121° |
| 2026-05-05 12:46 | 42.98219 | 30.09840 | 35063 ft | 485 kts | 121° |
| 2026-05-05 12:46 | 42.94491 | 30.17519 | 35065 ft | 486 kts | 121° |
| 2026-05-05 12:47 | 42.90769 | 30.25169 | 35062 ft | 486 kts | 121° |
| 2026-05-05 12:47 | 42.87019 | 30.32857 | 35061 ft | 487 kts | 121° |
| 2026-05-05 12:48 | 42.83255 | 30.40553 | 35058 ft | 487 kts | 121° |
| 2026-05-05 12:48 | 42.79494 | 30.48226 | 35054 ft | 487 kts | 121° |
| 2026-05-05 12:49 | 42.75834 | 30.55930 | 35049 ft | 485 kts | 115° |
| 2026-05-05 12:49 | 42.73442 | 30.64453 | 35054 ft | 480 kts | 101° |
| 2026-05-05 12:50 | 42.72397 | 30.73362 | 35043 ft | 477 kts | 94° |
| 2026-05-05 12:50 | 42.71561 | 30.82303 | 35053 ft | 477 kts | 94° |
| 2026-05-05 12:51 | 42.70683 | 30.91276 | 35047 ft | 477 kts | 95° |
| 2026-05-05 12:51 | 42.69770 | 31.00210 | 35044 ft | 477 kts | 95° |
| 2026-05-05 12:52 | 42.68846 | 31.09084 | 35040 ft | 477 kts | 95° |
| 2026-05-05 12:52 | 42.67910 | 31.18013 | 35043 ft | 477 kts | 95° |
| 2026-05-05 12:53 | 42.66971 | 31.26927 | 35036 ft | 476 kts | 95° |
| 2026-05-05 12:53 | 42.66024 | 31.35844 | 35032 ft | 476 kts | 95° |
| 2026-05-05 12:54 | 42.64593 | 31.49194 | 35035 ft | 475 kts | 95° |
| 2026-05-05 12:55 | 42.63633 | 31.58072 | 35032 ft | 475 kts | 95° |
| 2026-05-05 12:55 | 42.62672 | 31.66887 | 35033 ft | 475 kts | 95° |
| 2026-05-05 12:56 | 42.61697 | 31.75773 | 35029 ft | 475 kts | 95° |
| 2026-05-05 12:56 | 42.60716 | 31.84644 | 35030 ft | 475 kts | 95° |
| 2026-05-05 12:57 | 42.59728 | 31.93520 | 35026 ft | 475 kts | 95° |
| 2026-05-05 12:57 | 42.58739 | 32.02334 | 35025 ft | 475 kts | 96° |
| 2026-05-05 12:58 | 42.57638 | 32.11211 | 35022 ft | 475 kts | 96° |
| 2026-05-05 12:58 | 42.56629 | 32.20074 | 35027 ft | 475 kts | 95° |
| 2026-05-05 12:59 | 42.55639 | 32.28873 | 35025 ft | 474 kts | 95° |
| 2026-05-05 12:59 | 42.54624 | 32.37715 | 35025 ft | 474 kts | 95° |
| 2026-05-05 13:00 | 42.53081 | 32.50935 | 35030 ft | 472 kts | 95° |
| 2026-05-05 13:01 | 42.51004 | 32.68505 | 35023 ft | 471 kts | 95° |
| 2026-05-05 13:01 | 42.49965 | 32.77211 | 35025 ft | 470 kts | 95° |
| 2026-05-05 13:02 | 42.48915 | 32.85962 | 35033 ft | 470 kts | 96° |
| 2026-05-05 13:02 | 42.47856 | 32.94715 | 35033 ft | 471 kts | 96° |
| 2026-05-05 13:03 | 42.46792 | 33.03466 | 35031 ft | 471 kts | 96° |
| 2026-05-05 13:03 | 42.45720 | 33.12228 | 35030 ft | 472 kts | 96° |
| 2026-05-05 13:04 | 42.44645 | 33.21001 | 35030 ft | 472 kts | 96° |
| 2026-05-05 13:04 | 42.43569 | 33.29791 | 35035 ft | 473 kts | 96° |
| 2026-05-05 13:05 | 42.42488 | 33.38575 | 35030 ft | 474 kts | 96° |
| 2026-05-05 13:05 | 42.41387 | 33.47376 | 35037 ft | 474 kts | 96° |
| 2026-05-05 13:06 | 42.40267 | 33.56170 | 35033 ft | 475 kts | 97° |
| 2026-05-05 13:06 | 42.39149 | 33.64911 | 35030 ft | 475 kts | 97° |
| 2026-05-05 13:07 | 42.38017 | 33.73718 | 35034 ft | 475 kts | 97° |
| 2026-05-05 13:07 | 42.37071 | 33.81050 | 35024 ft | 475 kts | 97° |
| 2026-05-05 13:08 | 42.35928 | 33.89852 | 35032 ft | 476 kts | 97° |
| 2026-05-05 13:08 | 42.34775 | 33.98686 | 35027 ft | 476 kts | 97° |
| 2026-05-05 13:09 | 42.33622 | 34.07495 | 35031 ft | 477 kts | 97° |
| 2026-05-05 13:09 | 42.32455 | 34.16354 | 35031 ft | 478 kts | 97° |
| 2026-05-05 13:10 | 42.31283 | 34.25200 | 35032 ft | 479 kts | 98° |
| 2026-05-05 13:10 | 42.30110 | 34.34000 | 35033 ft | 479 kts | 98° |
| 2026-05-05 13:11 | 42.28918 | 34.42863 | 35031 ft | 480 kts | 98° |
| 2026-05-05 13:11 | 42.27700 | 34.51746 | 35033 ft | 481 kts | 98° |
| 2026-05-05 13:12 | 42.26476 | 34.60626 | 35029 ft | 482 kts | 98° |
| 2026-05-05 13:12 | 42.25244 | 34.69524 | 35029 ft | 482 kts | 99° |
| 2026-05-05 13:13 | 42.24005 | 34.78434 | 35034 ft | 483 kts | 99° |
| 2026-05-05 13:13 | 42.22764 | 34.87320 | 35038 ft | 483 kts | 99° |
| 2026-05-05 13:14 | 42.21518 | 34.96221 | 35039 ft | 483 kts | 99° |
| 2026-05-05 13:14 | 42.20265 | 35.05125 | 35042 ft | 483 kts | 99° |
| 2026-05-05 13:15 | 42.19005 | 35.14030 | 35044 ft | 483 kts | 99° |
| 2026-05-05 13:15 | 42.17738 | 35.22926 | 35043 ft | 483 kts | 99° |
| 2026-05-05 13:16 | 42.16473 | 35.31759 | 35041 ft | 483 kts | 99° |
| 2026-05-05 13:16 | 42.15195 | 35.40644 | 35033 ft | 483 kts | 100° |
| 2026-05-05 13:17 | 42.13912 | 35.49519 | 35033 ft | 483 kts | 100° |
| 2026-05-05 13:17 | 42.12624 | 35.58406 | 35026 ft | 483 kts | 100° |
| 2026-05-05 13:18 | 42.11328 | 35.67300 | 35027 ft | 483 kts | 100° |
| 2026-05-05 13:18 | 42.10035 | 35.76126 | 35027 ft | 483 kts | 100° |
| 2026-05-05 13:19 | 42.08726 | 35.85013 | 35025 ft | 484 kts | 100° |
| 2026-05-05 13:19 | 42.07410 | 35.93888 | 35024 ft | 484 kts | 101° |
| 2026-05-05 13:20 | 42.06086 | 36.02777 | 35021 ft | 484 kts | 101° |
| 2026-05-05 13:20 | 42.04753 | 36.11667 | 35022 ft | 484 kts | 101° |
| 2026-05-05 13:21 | 42.03415 | 36.20547 | 35023 ft | 484 kts | 101° |
| 2026-05-05 13:21 | 42.02070 | 36.29427 | 35021 ft | 484 kts | 101° |
| 2026-05-05 13:22 | 42.00720 | 36.38288 | 35023 ft | 484 kts | 101° |
| 2026-05-05 13:22 | 41.99361 | 36.47158 | 35020 ft | 484 kts | 101° |
| 2026-05-05 13:23 | 41.98007 | 36.55949 | 35021 ft | 483 kts | 101° |
| 2026-05-05 13:23 | 41.96636 | 36.64804 | 35020 ft | 483 kts | 102° |
| 2026-05-05 13:24 | 41.95260 | 36.73642 | 35020 ft | 483 kts | 102° |
| 2026-05-05 13:24 | 41.93886 | 36.82423 | 35020 ft | 483 kts | 102° |
| 2026-05-05 13:25 | 41.92499 | 36.91238 | 35019 ft | 482 kts | 102° |
| 2026-05-05 13:25 | 41.91105 | 37.00058 | 35016 ft | 482 kts | 102° |
| 2026-05-05 13:26 | 41.90237 | 37.08979 | 35014 ft | 483 kts | 92° |
| 2026-05-05 13:26 | 41.90140 | 37.17986 | 35016 ft | 483 kts | 91° |
| 2026-05-05 13:27 | 41.90052 | 37.27002 | 35017 ft | 483 kts | 91° |
| 2026-05-05 13:27 | 41.89928 | 37.36031 | 35013 ft | 484 kts | 92° |
| 2026-05-05 13:28 | 41.89779 | 37.45053 | 35014 ft | 484 kts | 92° |
| 2026-05-05 13:28 | 41.89619 | 37.54106 | 35012 ft | 485 kts | 92° |
| 2026-05-05 13:29 | 41.89454 | 37.63101 | 35014 ft | 485 kts | 92° |
| 2026-05-05 13:29 | 41.89281 | 37.72171 | 35010 ft | 486 kts | 92° |
| 2026-05-05 13:30 | 41.89101 | 37.81248 | 35012 ft | 487 kts | 92° |
| 2026-05-05 13:30 | 41.88914 | 37.90331 | 35014 ft | 487 kts | 92° |
| 2026-05-05 13:31 | 41.88720 | 37.99440 | 35013 ft | 488 kts | 92° |
| 2026-05-05 13:31 | 41.88518 | 38.08562 | 35013 ft | 489 kts | 93° |
| 2026-05-05 13:32 | 41.88308 | 38.17687 | 35012 ft | 489 kts | 93° |
| 2026-05-05 13:32 | 41.88092 | 38.26813 | 35012 ft | 489 kts | 93° |
| 2026-05-05 13:33 | 41.87869 | 38.35909 | 35013 ft | 490 kts | 93° |
| 2026-05-05 13:33 | 41.87638 | 38.45031 | 35012 ft | 490 kts | 93° |
| 2026-05-05 13:34 | 41.87399 | 38.54153 | 35009 ft | 490 kts | 94° |
| 2026-05-05 13:34 | 41.87153 | 38.63311 | 35019 ft | 491 kts | 94° |
| 2026-05-05 13:35 | 41.87027 | 38.67889 | 35164 ft | 492 kts | 94° |
| 2026-05-05 13:35 | 41.86898 | 38.72477 | 35405 ft | 491 kts | 94° |
| 2026-05-05 13:35 | 41.86769 | 38.77067 | 35654 ft | 490 kts | 94° |
| 2026-05-05 13:35 | 41.86640 | 38.81573 | 35891 ft | 489 kts | 94° |
| 2026-05-05 13:36 | 41.86507 | 38.86133 | 36098 ft | 489 kts | 94° |